createdAt,value
2018-03-23T00:00:36.733Z,22.23
2018-03-23T00:03:04.966Z,20.73
2018-03-23T00:05:32.696Z,22.23
2018-03-23T00:08:00.158Z,20.87
2018-03-23T00:10:27.632Z,21.73
2018-03-23T00:12:55.098Z,21.17
2018-03-23T00:15:22.565Z,27.67
2018-03-23T00:17:50.062Z,22.93
2018-03-23T00:20:18.666Z,22.20
2018-03-23T00:22:46.143Z,24.03
2018-03-23T00:25:13.607Z,22.60
2018-03-23T00:27:41.069Z,23.80
2018-03-23T00:30:08.530Z,24.13
2018-03-23T00:32:35.990Z,23.27
2018-03-23T00:35:03.474Z,25.17
2018-03-23T00:37:30.941Z,25.63
2018-03-23T00:39:58.629Z,22.63
2018-03-23T00:42:26.093Z,25.03
2018-03-23T00:44:53.560Z,23.83
2018-03-23T00:47:21.030Z,25.93
2018-03-23T00:49:48.484Z,24.03
2018-03-23T00:52:15.961Z,28.17
2018-03-23T00:54:43.679Z,28.90
2018-03-23T00:57:11.144Z,25.13
2018-03-23T00:59:38.620Z,28.27
2018-03-23T01:02:06.115Z,28.37
2018-03-23T01:04:34.631Z,29.30
2018-03-23T01:07:02.092Z,26.37
2018-03-23T01:09:29.556Z,31.17
2018-03-23T01:11:57.032Z,27.47
2018-03-23T01:14:24.490Z,27.67
2018-03-23T01:16:51.962Z,27.23
2018-03-23T01:19:19.432Z,29.90
2018-03-23T01:21:46.909Z,24.87
2018-03-23T01:24:15.142Z,29.33
2018-03-23T01:26:43.362Z,26.27
2018-03-23T01:29:11.599Z,30.00
2018-03-23T01:31:39.323Z,27.57
2018-03-23T01:34:06.791Z,28.77
2018-03-23T01:36:34.306Z,26.97
2018-03-23T01:39:01.719Z,29.53
2018-03-23T01:41:29.458Z,28.60
2018-03-23T01:43:56.918Z,31.20
2018-03-23T01:46:24.678Z,29.97
2018-03-23T01:48:52.138Z,31.87
2018-03-23T01:51:19.614Z,35.83
2018-03-23T01:53:47.066Z,33.47
2018-03-23T01:56:14.751Z,37.00
2018-03-23T01:58:42.210Z,36.83
2018-03-23T02:01:09.678Z,29.07
2018-03-23T02:03:37.146Z,30.57
2018-03-23T02:06:05.369Z,29.97
2018-03-23T02:08:32.839Z,30.40
2018-03-23T02:11:00.577Z,26.97
2018-03-23T02:13:28.045Z,28.90
2018-03-23T02:15:55.506Z,28.70
2018-03-23T02:18:22.963Z,27.33
2018-03-23T02:20:50.718Z,28.20
2018-03-23T02:23:18.174Z,28.27
2018-03-23T02:25:45.642Z,28.57
2018-03-23T02:28:13.097Z,30.63
2018-03-23T02:30:40.559Z,29.60
2018-03-23T02:33:08.042Z,28.30
2018-03-23T02:35:35.499Z,29.77
2018-03-23T02:38:02.978Z,26.77
2018-03-23T02:40:31.202Z,29.67
2018-03-23T02:42:58.953Z,28.73
2018-03-23T02:45:26.724Z,27.63
2018-03-23T02:47:54.186Z,28.23
2018-03-23T02:50:21.658Z,27.57
2018-03-23T02:52:49.121Z,27.37
2018-03-23T02:55:16.593Z,26.10
2018-03-23T02:57:44.315Z,24.97
2018-03-23T03:00:11.786Z,28.70
2018-03-23T03:02:39.254Z,26.63
2018-03-23T03:05:06.722Z,25.87
2018-03-23T03:07:34.187Z,27.57
2018-03-23T03:10:01.656Z,25.37
2018-03-23T03:12:29.122Z,29.63
2018-03-23T03:14:57.639Z,26.23
2018-03-23T03:17:25.105Z,27.73
2018-03-23T03:19:52.883Z,24.97
2018-03-23T03:22:20.325Z,28.33
2018-03-23T03:24:48.081Z,25.50
2018-03-23T03:27:15.537Z,27.03
2018-03-23T03:29:42.995Z,26.63
2018-03-23T03:32:10.758Z,29.37
2018-03-23T03:34:38.214Z,27.93
2018-03-23T03:37:05.982Z,30.77
2018-03-23T03:39:33.438Z,30.43
2018-03-23T03:42:00.901Z,31.83
2018-03-23T03:44:28.369Z,34.07
2018-03-23T03:46:55.825Z,31.37
2018-03-23T03:49:23.296Z,29.57
2018-03-23T03:51:50.750Z,28.47
2018-03-23T03:54:18.218Z,29.60
2018-03-23T03:56:45.679Z,32.03
2018-03-23T03:59:13.136Z,33.77
2018-03-23T04:01:40.642Z,34.70
2018-03-23T04:04:08.104Z,35.43
2018-03-23T04:06:35.574Z,29.83
2018-03-23T04:09:03.037Z,33.63
2018-03-23T04:11:30.789Z,35.10
2018-03-23T04:13:58.261Z,31.73
2018-03-23T04:16:25.714Z,32.33
2018-03-23T04:18:53.178Z,31.80
2018-03-23T04:21:20.851Z,30.13
2018-03-23T04:23:49.081Z,29.43
2018-03-23T04:26:16.749Z,29.23
2018-03-23T04:28:44.202Z,31.23
2018-03-23T04:31:11.662Z,28.60
2018-03-23T04:33:39.438Z,28.37
2018-03-23T04:36:06.905Z,30.43
2018-03-23T04:38:34.370Z,28.87
2018-03-23T04:41:01.821Z,27.17
2018-03-23T04:43:29.327Z,30.87
2018-03-23T04:45:56.782Z,33.50
2018-03-23T04:48:24.288Z,30.37
2018-03-23T04:50:51.764Z,31.03
2018-03-23T04:53:19.226Z,28.97
2018-03-23T04:55:46.962Z,30.97
2018-03-23T04:58:14.726Z,33.47
2018-03-23T05:00:42.406Z,27.03
2018-03-23T05:03:09.875Z,31.77
2018-03-23T05:05:37.347Z,31.23
2018-03-23T05:08:04.820Z,32.03
2018-03-23T05:10:32.286Z,28.43
2018-03-23T05:12:59.755Z,29.67
2018-03-23T05:15:27.210Z,30.47
2018-03-23T05:17:55.818Z,29.47
2018-03-23T05:20:23.270Z,37.80
2018-03-23T05:22:50.817Z,36.00
2018-03-23T05:25:18.282Z,33.97
2018-03-23T05:27:45.743Z,31.70
2018-03-23T05:30:13.525Z,32.50
2018-03-23T05:32:40.981Z,32.60
2018-03-23T05:35:08.734Z,33.17
2018-03-23T05:37:36.194Z,30.50
2018-03-23T05:40:03.954Z,33.77
2018-03-23T05:42:31.717Z,31.23
2018-03-23T05:44:59.171Z,28.47
2018-03-23T05:47:26.630Z,35.53
2018-03-23T05:49:54.398Z,39.63
2018-03-23T05:52:21.856Z,34.43
2018-03-23T05:54:49.315Z,31.17
2018-03-23T05:57:16.778Z,33.50
2018-03-23T05:59:45.030Z,29.93
2018-03-23T06:02:12.494Z,30.50
2018-03-23T06:04:39.953Z,33.57
2018-03-23T06:07:07.422Z,34.03
2018-03-23T06:09:34.878Z,32.37
2018-03-23T06:12:02.354Z,28.53
2018-03-23T06:14:29.815Z,37.47
2018-03-23T06:16:57.279Z,37.23
2018-03-23T06:19:24.746Z,33.67
2018-03-23T06:21:52.208Z,28.40
2018-03-23T06:24:19.683Z,30.83
2018-03-23T06:26:47.910Z,29.13
2018-03-23T06:29:15.658Z,30.03
2018-03-23T06:31:43.422Z,26.97
2018-03-23T06:34:10.873Z,28.60
2018-03-23T06:36:38.346Z,27.60
2018-03-23T06:39:05.819Z,28.40
2018-03-23T06:41:33.270Z,25.30
2018-03-23T06:44:01.015Z,25.97
2018-03-23T06:46:28.466Z,25.00
2018-03-23T06:48:55.930Z,24.37
2018-03-23T06:51:23.391Z,26.57
2018-03-23T06:53:50.863Z,26.33
2018-03-23T06:56:18.325Z,27.53
2018-03-23T06:58:46.166Z,27.13
2018-03-23T07:01:13.929Z,27.07
2018-03-23T07:03:41.693Z,25.33
2018-03-23T07:06:09.457Z,28.10
2018-03-23T07:08:36.918Z,26.87
2018-03-23T07:11:04.389Z,28.63
2018-03-23T07:13:31.846Z,28.53
2018-03-23T07:15:59.315Z,24.20
2018-03-23T07:18:26.783Z,25.50
2018-03-23T07:20:54.234Z,25.53
2018-03-23T07:23:21.705Z,27.87
2018-03-23T07:25:49.171Z,27.23
2018-03-23T07:28:16.877Z,28.07
2018-03-23T07:30:44.343Z,26.97
2018-03-23T07:33:11.800Z,26.17
2018-03-23T07:35:39.557Z,28.27
2018-03-23T07:38:07.021Z,30.60
2018-03-23T07:40:34.494Z,27.87
2018-03-23T07:43:01.955Z,28.87
2018-03-23T07:45:29.435Z,27.67
2018-03-23T07:47:56.889Z,28.20
2018-03-23T07:50:24.359Z,26.97
2018-03-23T07:52:52.066Z,30.57
2018-03-23T07:55:19.541Z,34.53
2018-03-23T07:57:47.009Z,29.27
2018-03-23T08:00:14.474Z,26.37
2018-03-23T08:02:41.942Z,27.63
2018-03-23T08:05:10.185Z,27.70
2018-03-23T08:07:37.865Z,28.53
2018-03-23T08:10:05.330Z,27.80
2018-03-23T08:12:32.791Z,32.47
2018-03-23T08:15:00.257Z,27.40
2018-03-23T08:17:27.714Z,27.60
2018-03-23T08:19:55.174Z,29.60
2018-03-23T08:22:22.651Z,27.03
2018-03-23T08:24:50.110Z,29.30
2018-03-23T08:27:18.342Z,30.13
2018-03-23T08:29:45.798Z,27.10
2018-03-23T08:32:13.531Z,30.07
2018-03-23T08:34:41.404Z,29.47
2018-03-23T08:37:08.875Z,27.60
2018-03-23T08:39:36.338Z,28.87
2018-03-23T08:42:03.799Z,26.53
2018-03-23T08:44:31.288Z,28.90
2018-03-23T08:46:59.522Z,26.43
2018-03-23T08:49:26.981Z,29.20
2018-03-23T08:51:54.462Z,29.87
2018-03-23T08:54:21.918Z,26.23
2018-03-23T08:56:49.393Z,28.03
2018-03-23T08:59:17.618Z,31.03
2018-03-23T09:01:45.370Z,25.43
2018-03-23T09:04:12.820Z,26.83
2018-03-23T09:06:40.282Z,26.10
2018-03-23T09:09:07.734Z,25.80
2018-03-23T09:11:35.226Z,27.00
2018-03-23T09:14:02.681Z,23.03
2018-03-23T09:16:30.142Z,25.07
2018-03-23T09:18:57.874Z,28.20
2018-03-23T09:21:25.338Z,25.47
2018-03-23T09:23:52.806Z,20.87
2018-03-23T09:26:20.269Z,24.30
2018-03-23T09:28:47.739Z,26.13
2018-03-23T09:31:15.225Z,23.93
2018-03-23T09:33:42.701Z,24.80
2018-03-23T09:36:10.161Z,22.57
2018-03-23T09:38:37.622Z,24.60
2018-03-23T09:41:05.085Z,23.27
2018-03-23T09:43:32.554Z,22.97
2018-03-23T09:46:00.010Z,21.90
2018-03-23T09:48:27.477Z,22.10
2018-03-23T09:50:54.937Z,23.80
2018-03-23T09:53:22.864Z,22.70
2018-03-23T09:55:50.408Z,22.37
2018-03-23T09:58:22.917Z,22.57
2018-03-23T10:00:50.386Z,22.73
2018-03-23T10:03:18.038Z,23.00
2018-03-23T10:05:45.732Z,22.73
2018-03-23T10:08:13.465Z,21.83
2018-03-23T10:10:40.930Z,22.37
2018-03-23T10:13:08.430Z,19.97
2018-03-23T10:15:35.905Z,19.83
2018-03-23T10:18:04.127Z,21.33
2018-03-23T10:20:31.598Z,24.80
2018-03-23T10:22:59.098Z,18.70
2018-03-23T10:25:27.323Z,17.07
2018-03-23T10:27:55.820Z,18.50
2018-03-23T10:30:23.275Z,17.57
2018-03-23T10:32:51.006Z,18.80
2018-03-23T10:35:18.476Z,17.87
2018-03-23T10:37:45.972Z,18.43
2018-03-23T10:40:13.439Z,17.33
2018-03-23T10:42:41.016Z,17.67
2018-03-23T10:45:08.510Z,17.73
2018-03-23T10:47:35.978Z,17.53
2018-03-23T10:50:03.438Z,17.73
2018-03-23T10:52:31.386Z,16.80
2018-03-23T10:54:59.030Z,17.80
2018-03-23T10:57:26.539Z,16.97
2018-03-23T10:59:54.001Z,17.23
2018-03-23T11:05:23.801Z,19.73
2018-03-23T11:07:51.280Z,17.13
2018-03-23T11:10:18.737Z,18.40
2018-03-23T11:12:46.220Z,38.00
2018-03-23T11:15:13.690Z,18.60
2018-03-23T11:17:41.929Z,17.73
2018-03-23T11:20:09.398Z,28.00
2018-03-23T11:22:36.860Z,16.47
2018-03-23T11:25:04.329Z,19.33
2018-03-23T11:27:32.850Z,17.77
2018-03-23T11:30:00.330Z,16.77
2018-03-23T11:32:27.786Z,17.07
2018-03-23T11:34:55.251Z,16.73
2018-03-23T11:37:24.667Z,15.90
2018-03-23T11:39:52.158Z,15.33
2018-03-23T11:42:21.541Z,17.07
2018-03-23T11:44:49.479Z,16.40
2018-03-23T11:47:16.920Z,15.93
2018-03-23T11:49:44.387Z,17.07
2018-03-23T11:52:11.848Z,16.77
2018-03-23T11:54:39.313Z,25.63
2018-03-23T11:57:07.543Z,16.40
2018-03-23T11:59:35.022Z,16.10
2018-03-23T12:02:02.749Z,16.43
2018-03-23T12:04:30.469Z,16.90
2018-03-23T12:06:58.744Z,16.13
2018-03-23T12:09:26.725Z,17.07
2018-03-23T12:11:54.997Z,16.73
2018-03-23T12:14:22.487Z,17.50
2018-03-23T12:16:49.941Z,16.47
2018-03-23T12:19:18.174Z,15.57
2018-03-23T12:21:45.635Z,16.73
2018-03-23T12:24:13.123Z,16.63
2018-03-23T12:26:41.361Z,16.00
2018-03-23T12:29:09.205Z,16.73
2018-03-23T12:31:36.689Z,17.73
2018-03-23T12:34:06.049Z,18.27
2018-03-23T12:36:33.515Z,17.83
2018-03-23T12:39:00.986Z,18.40
2018-03-23T12:41:28.445Z,17.77
2018-03-23T12:43:55.917Z,17.00
2018-03-23T12:46:23.410Z,18.00
2018-03-23T12:48:50.871Z,17.60
2018-03-23T12:51:19.394Z,16.27
2018-03-23T12:53:46.867Z,16.43
2018-03-23T12:56:14.364Z,18.37
2018-03-23T12:58:41.809Z,18.00
2018-03-23T13:01:09.255Z,17.77
2018-03-23T13:03:36.727Z,18.30
2018-03-23T13:06:04.207Z,20.30
2018-03-23T13:08:31.666Z,26.63
2018-03-23T13:10:59.901Z,17.63
2018-03-23T13:13:27.365Z,16.90
2018-03-23T13:15:55.190Z,17.20
2018-03-23T13:18:22.655Z,18.47
2018-03-23T13:20:50.414Z,17.70
2018-03-23T13:23:17.874Z,26.07
2018-03-23T13:25:45.348Z,16.97
2018-03-23T13:28:12.814Z,16.63
2018-03-23T13:30:41.048Z,17.20
2018-03-23T13:33:08.528Z,17.20
2018-03-23T13:35:36.286Z,18.87
2018-03-23T13:38:03.756Z,19.23
2018-03-23T13:40:31.211Z,16.80
2018-03-23T13:42:58.683Z,16.47
2018-03-23T13:45:26.164Z,15.73
2018-03-23T13:47:53.841Z,18.17
2018-03-23T13:50:22.124Z,16.80
2018-03-23T13:52:49.542Z,16.33
2018-03-23T13:55:17.002Z,17.23
2018-03-23T13:57:44.475Z,15.80
2018-03-23T14:00:17.598Z,16.13
2018-03-23T14:02:45.068Z,17.60
2018-03-23T14:05:12.530Z,16.53
2018-03-23T14:07:39.991Z,15.87
2018-03-23T14:10:07.751Z,15.37
2018-03-23T14:12:35.724Z,15.57
2018-03-23T14:15:03.225Z,16.17
2018-03-23T14:17:30.679Z,15.03
2018-03-23T14:19:58.145Z,16.27
2018-03-23T14:22:25.856Z,15.77
2018-03-23T14:24:53.338Z,15.83
2018-03-23T14:27:20.791Z,16.20
2018-03-23T14:29:48.290Z,14.77
2018-03-23T14:32:16.805Z,13.77
2018-03-23T14:34:44.276Z,14.93
2018-03-23T14:37:12.026Z,14.70
2018-03-23T14:39:39.507Z,14.30
2018-03-23T14:42:06.978Z,14.43
2018-03-23T14:44:34.442Z,13.47
2018-03-23T14:47:01.917Z,14.07
2018-03-23T14:49:30.163Z,12.60
2018-03-23T14:51:57.640Z,12.77
2018-03-23T14:54:25.109Z,12.70
2018-03-23T14:56:53.347Z,12.67
2018-03-23T14:59:20.812Z,12.13
2018-03-23T15:01:48.280Z,12.63
2018-03-23T15:04:15.755Z,11.77
2018-03-23T15:06:44.005Z,12.60
2018-03-23T15:09:11.509Z,12.63
2018-03-23T15:11:38.996Z,11.57
2018-03-23T15:14:15.558Z,13.10
2018-03-23T15:16:43.026Z,12.20
2018-03-23T15:19:10.478Z,12.93
2018-03-23T15:21:37.950Z,11.80
2018-03-23T15:24:05.692Z,11.27
2018-03-23T15:26:33.160Z,12.07
2018-03-23T15:29:00.630Z,14.20
2018-03-23T15:31:28.084Z,12.83
2018-03-23T15:33:55.777Z,11.73
2018-03-23T15:36:23.242Z,10.43
2018-03-23T15:38:51.632Z,11.40
2018-03-23T15:41:19.950Z,14.43
2018-03-23T15:43:47.419Z,11.93
2018-03-23T15:46:14.869Z,9.87
2018-03-23T15:48:42.337Z,10.10
2018-03-23T15:51:09.824Z,10.07
2018-03-23T15:53:38.077Z,11.33
2018-03-23T15:56:05.753Z,11.17
2018-03-23T15:58:33.222Z,11.23
2018-03-23T16:01:01.463Z,16.07
2018-03-23T16:03:28.918Z,10.57
2018-03-23T16:05:56.418Z,10.27
2018-03-23T16:08:24.727Z,10.00
2018-03-23T16:10:52.503Z,10.23
2018-03-23T16:13:20.321Z,12.77
2018-03-23T16:15:47.747Z,11.47
2018-03-23T16:18:15.241Z,11.23
2018-03-23T16:20:43.465Z,11.27
2018-03-23T16:23:10.950Z,14.60
2018-03-23T16:25:38.576Z,17.03
2018-03-23T16:28:06.898Z,26.03
2018-03-23T16:30:35.151Z,23.93
2018-03-23T16:33:02.656Z,18.53
2018-03-23T16:35:30.127Z,18.20
2018-03-23T16:37:57.587Z,22.27
2018-03-23T16:40:25.062Z,26.53
2018-03-23T16:42:52.617Z,26.83
2018-03-23T16:45:20.605Z,29.17
2018-03-23T16:47:48.078Z,27.10
2018-03-23T16:50:17.057Z,64.27
2018-03-23T16:52:44.525Z,44.43
2018-03-23T16:55:12.004Z,34.30
2018-03-23T16:57:40.421Z,54.60
2018-03-23T17:00:07.897Z,40.73
2018-03-23T17:02:35.646Z,31.07
2018-03-23T17:05:03.119Z,46.87
2018-03-23T17:07:30.582Z,24.00
2018-03-23T17:09:58.328Z,30.17
2018-03-23T17:12:25.936Z,39.60
2018-03-23T17:14:54.178Z,27.37
2018-03-23T17:17:21.642Z,21.80
2018-03-23T17:19:49.120Z,15.80
2018-03-23T17:22:16.587Z,13.37
2018-03-23T17:24:44.063Z,14.37
2018-03-23T17:27:12.282Z,13.67
2018-03-23T17:29:40.518Z,13.53
2018-03-23T17:32:08.011Z,14.07
2018-03-23T17:34:35.784Z,13.40
2018-03-23T17:37:03.390Z,12.97
2018-03-23T17:39:31.631Z,12.87
2018-03-23T17:41:59.099Z,15.97
2018-03-23T17:44:26.572Z,13.50
2018-03-23T17:46:54.030Z,12.37
2018-03-23T17:49:21.496Z,12.77
2018-03-23T17:51:49.943Z,12.87
2018-03-23T17:54:17.407Z,12.57
2018-03-23T17:56:44.865Z,11.33
2018-03-23T17:59:12.335Z,12.23
2018-03-23T18:01:40.042Z,17.00
2018-03-23T18:04:07.730Z,17.60
2018-03-23T18:06:35.186Z,17.93
2018-03-23T18:09:02.646Z,16.63
2018-03-23T18:11:30.115Z,17.13
2018-03-23T18:13:57.590Z,16.10
2018-03-23T18:16:25.051Z,16.50
2018-03-23T18:18:52.534Z,17.70
2018-03-23T18:21:19.993Z,19.03
2018-03-23T18:23:47.470Z,17.40
2018-03-23T18:26:14.926Z,17.80
2018-03-23T18:28:42.417Z,17.73
2018-03-23T18:31:09.887Z,16.50
2018-03-23T18:33:37.371Z,17.00
2018-03-23T18:36:05.606Z,16.70
2018-03-23T18:38:33.114Z,20.73
2018-03-23T18:41:00.598Z,18.03
2018-03-23T18:43:28.328Z,19.17
2018-03-23T18:45:55.798Z,18.83
2018-03-23T18:48:23.258Z,17.40
2018-03-23T18:50:50.711Z,18.83
2018-03-23T18:53:18.183Z,16.67
2018-03-23T18:55:45.867Z,17.90
2018-03-23T18:58:13.616Z,18.87
2018-03-23T19:00:41.096Z,18.03
2018-03-23T19:03:08.665Z,17.10
2018-03-23T19:05:36.129Z,18.97
2018-03-23T19:08:03.594Z,16.80
2018-03-23T19:10:32.130Z,16.70
2018-03-23T19:12:59.897Z,19.20
2018-03-23T19:15:27.685Z,17.57
2018-03-23T19:17:55.846Z,17.37
2018-03-23T19:20:23.343Z,18.10
2018-03-23T19:22:51.787Z,19.00
2018-03-23T19:25:19.292Z,17.07
2018-03-23T19:27:47.550Z,17.97
2018-03-23T19:30:15.384Z,17.20
2018-03-23T19:32:43.339Z,17.80
2018-03-23T19:35:11.094Z,16.37
2018-03-23T19:37:38.825Z,18.93
2018-03-23T19:40:07.074Z,21.97
2018-03-23T19:42:34.538Z,21.17
2018-03-23T19:45:02.250Z,19.97
2018-03-23T19:47:29.742Z,18.90
2018-03-23T19:49:57.209Z,21.70
2018-03-23T19:52:24.682Z,19.27
2018-03-23T19:54:53.205Z,19.37
2018-03-23T19:57:20.740Z,21.47
2018-03-23T19:59:48.429Z,20.77
2018-03-23T20:02:16.195Z,23.53
2018-03-23T20:04:43.667Z,21.03
2018-03-23T20:07:11.147Z,22.17
2018-03-23T20:09:38.680Z,19.83
2018-03-23T20:12:06.427Z,20.53
2018-03-23T20:14:33.887Z,21.83
2018-03-23T20:17:01.358Z,21.63
2018-03-23T20:19:28.828Z,21.97
2018-03-23T20:21:56.294Z,25.93
2018-03-23T20:24:29.963Z,23.70
2018-03-23T20:27:01.090Z,23.73
2018-03-23T20:29:28.868Z,24.07
2018-03-23T20:32:02.163Z,21.53
2018-03-23T20:34:29.931Z,21.37
2018-03-23T20:36:57.416Z,20.80
2018-03-23T20:39:24.903Z,28.30
2018-03-23T20:41:52.342Z,34.10
2018-03-23T20:44:19.813Z,34.97
2018-03-23T20:46:47.275Z,31.33
2018-03-23T20:49:15.032Z,32.30
2018-03-23T20:51:42.802Z,30.60
2018-03-23T20:54:11.036Z,26.90
2018-03-23T20:56:39.534Z,38.97
2018-03-23T20:59:07.009Z,26.47
2018-03-23T21:01:34.475Z,22.33
2018-03-23T21:04:02.710Z,21.57
2018-03-23T21:06:30.202Z,18.23
2018-03-23T21:08:57.661Z,17.27
2018-03-23T21:11:25.130Z,17.10
2018-03-23T21:13:53.352Z,16.73
2018-03-23T21:16:20.835Z,16.43
2018-03-23T21:18:48.290Z,17.03
2018-03-23T21:21:15.767Z,17.70
2018-03-23T21:23:43.246Z,17.07
2018-03-23T21:26:10.736Z,17.50
2018-03-23T21:28:38.195Z,18.70
2018-03-23T21:31:05.885Z,18.53
2018-03-23T21:33:33.347Z,17.53
2018-03-23T21:36:01.045Z,17.47
2018-03-23T21:38:28.527Z,19.30
2018-03-23T21:40:56.007Z,18.07
2018-03-23T21:43:23.526Z,18.37
2018-03-23T21:45:51.126Z,17.50
2018-03-23T21:48:18.587Z,18.47
2018-03-23T21:50:46.050Z,18.37
2018-03-23T21:53:13.534Z,18.33
2018-03-23T21:55:41.757Z,18.60
2018-03-23T21:58:09.221Z,18.70
2018-03-23T22:00:36.695Z,17.33
2018-03-23T22:03:04.523Z,17.13
2018-03-23T22:05:32.002Z,18.63
2018-03-23T22:07:59.467Z,21.50
2018-03-23T22:10:26.944Z,18.40
2018-03-23T22:12:54.624Z,19.13
2018-03-23T22:15:22.858Z,19.67
2018-03-23T22:17:50.323Z,20.20
2018-03-23T22:20:18.064Z,18.97
2018-03-23T22:22:45.532Z,18.27
2018-03-23T22:25:13.011Z,16.80
2018-03-23T22:27:40.471Z,17.37
2018-03-23T22:30:07.946Z,16.77
2018-03-23T22:32:36.178Z,18.40
2018-03-23T22:35:03.850Z,18.30
2018-03-23T22:37:31.326Z,15.00
2018-03-23T22:39:58.794Z,15.97
2018-03-23T22:42:27.039Z,17.00
2018-03-23T22:44:54.508Z,16.70
2018-03-23T22:47:21.983Z,15.60
2018-03-23T22:49:50.230Z,15.67
2018-03-23T22:52:17.915Z,16.10
2018-03-23T22:54:45.386Z,16.37
2018-03-23T22:57:13.606Z,15.50
2018-03-23T22:59:41.074Z,19.17
2018-03-23T23:02:08.532Z,16.77
2018-03-23T23:04:36.010Z,16.03
2018-03-23T23:07:03.766Z,16.77
2018-03-23T23:09:31.444Z,16.53
2018-03-23T23:11:58.917Z,16.37
2018-03-23T23:14:27.138Z,17.13
2018-03-23T23:16:54.608Z,15.63
2018-03-23T23:19:22.078Z,16.57
2018-03-23T23:21:49.805Z,16.07
2018-03-23T23:24:17.291Z,16.77
2018-03-23T23:26:44.762Z,16.47
2018-03-23T23:29:12.238Z,15.90
2018-03-23T23:31:40.486Z,17.43
2018-03-23T23:34:07.972Z,16.77
2018-03-23T23:36:36.227Z,17.43
2018-03-23T23:39:03.709Z,15.60
2018-03-23T23:41:31.968Z,15.53
2018-03-23T23:43:59.475Z,18.37
2018-03-23T23:46:26.965Z,16.47
2018-03-23T23:48:54.447Z,18.50
2018-03-23T23:51:21.928Z,17.03
2018-03-23T23:53:50.181Z,15.77
2018-03-23T23:56:18.446Z,17.97
2018-03-23T23:58:45.931Z,17.63
